createdAt,value
2022-08-25T00:00:13.242Z,4.63
2022-08-25T00:02:39.661Z,4.80
2022-08-25T00:05:07.085Z,4.40
2022-08-25T00:07:36.359Z,4.67
2022-08-25T00:10:04.200Z,5.23
2022-08-25T00:12:30.545Z,4.90
2022-08-25T00:14:56.984Z,4.97
2022-08-25T00:17:23.414Z,4.33
2022-08-25T00:19:50.005Z,5.50
2022-08-25T00:22:16.515Z,5.30
2022-08-25T00:24:43.034Z,5.07
2022-08-25T00:27:11.028Z,5.00
2022-08-25T00:29:38.231Z,4.90
2022-08-25T00:32:05.649Z,5.30
2022-08-25T00:34:35.345Z,5.73
2022-08-25T00:37:03.743Z,4.60
2022-08-25T00:39:30.497Z,5.47
2022-08-25T00:41:58.104Z,5.73
2022-08-25T00:44:26.062Z,5.80
2022-08-25T00:46:56.297Z,5.53
2022-08-25T00:49:49.506Z,5.40
2022-08-25T00:52:29.488Z,5.27
2022-08-25T00:55:07.737Z,5.03
2022-08-25T00:57:38.029Z,5.50
2022-08-25T01:00:06.943Z,5.30
2022-08-25T01:02:33.450Z,5.23
2022-08-25T01:04:59.959Z,5.20
2022-08-25T01:07:26.383Z,4.90
2022-08-25T01:09:53.302Z,5.60
2022-08-25T01:12:20.796Z,5.07
2022-08-25T01:14:48.855Z,5.60
2022-08-25T01:17:15.906Z,6.07
2022-08-25T01:19:42.495Z,5.47
2022-08-25T01:22:10.546Z,5.37
2022-08-25T01:25:01.796Z,5.57
2022-08-25T01:27:28.230Z,5.43
2022-08-25T01:29:55.196Z,4.90
2022-08-25T01:32:21.610Z,4.80
2022-08-25T01:34:48.316Z,5.43
2022-08-25T01:37:19.140Z,5.53
2022-08-25T01:39:45.620Z,4.90
2022-08-25T01:42:12.124Z,5.80
2022-08-25T01:44:41.759Z,5.70
2022-08-25T01:47:08.727Z,6.20
2022-08-25T01:49:36.200Z,5.50
2022-08-25T01:52:12.651Z,4.83
2022-08-25T01:54:39.189Z,5.20
2022-08-25T01:57:05.631Z,6.00
2022-08-25T01:59:32.393Z,5.17
2022-08-25T02:02:00.180Z,5.43
2022-08-25T02:04:31.897Z,5.13
2022-08-25T02:07:00.003Z,5.43
2022-08-25T02:09:26.408Z,5.70
2022-08-25T02:11:52.940Z,5.43
2022-08-25T02:14:19.966Z,5.23
2022-08-25T02:16:49.760Z,5.30
2022-08-25T02:19:16.330Z,5.60
2022-08-25T02:21:43.376Z,5.10
2022-08-25T02:24:10.567Z,4.40
2022-08-25T02:26:37.478Z,4.83
2022-08-25T02:29:06.612Z,5.67
2022-08-25T02:31:33.366Z,4.83
2022-08-25T02:33:59.946Z,4.77
2022-08-25T02:36:26.785Z,5.40
2022-08-25T02:38:53.230Z,6.03
2022-08-25T02:41:23.675Z,5.40
2022-08-25T02:43:57.821Z,5.50
2022-08-25T02:46:24.948Z,5.80
2022-08-25T02:48:53.055Z,5.40
2022-08-25T02:51:21.934Z,5.50
2022-08-25T02:53:48.404Z,5.53
2022-08-25T02:56:16.365Z,5.07
2022-08-25T02:58:43.068Z,5.20
2022-08-25T03:01:11.868Z,5.20
2022-08-25T03:03:40.360Z,5.53
2022-08-25T03:06:09.551Z,6.13
2022-08-25T03:08:37.652Z,5.30
2022-08-25T03:11:05.688Z,5.93
2022-08-25T03:13:32.796Z,5.23
2022-08-25T03:16:00.552Z,5.73
2022-08-25T03:18:27.578Z,4.70
2022-08-25T03:20:55.028Z,5.43
2022-08-25T03:23:21.602Z,5.50
2022-08-25T03:26:06.303Z,5.50
2022-08-25T03:28:33.152Z,5.57
2022-08-25T03:31:01.095Z,5.20
2022-08-25T03:33:31.586Z,5.77
2022-08-25T03:35:59.171Z,5.73
2022-08-25T03:38:26.825Z,5.20
2022-08-25T03:40:53.569Z,5.40
2022-08-25T03:43:20.563Z,5.67
2022-08-25T03:45:47.772Z,5.63
2022-08-25T03:48:16.060Z,4.73
2022-08-25T03:50:50.719Z,5.53
2022-08-25T03:53:20.170Z,5.30
2022-08-25T03:55:47.208Z,5.43
2022-08-25T03:58:14.048Z,6.43
2022-08-25T04:00:40.793Z,5.57
2022-08-25T04:03:07.640Z,6.13
2022-08-25T04:05:34.151Z,6.10
2022-08-25T04:08:01.794Z,5.93
2022-08-25T04:10:29.585Z,5.40
2022-08-25T04:12:57.133Z,5.73
2022-08-25T04:15:24.839Z,5.73
2022-08-25T04:17:55.166Z,5.97
2022-08-25T04:20:22.029Z,5.50
2022-08-25T04:22:48.467Z,5.53
2022-08-25T04:25:14.952Z,6.03
2022-08-25T04:27:41.784Z,6.17
2022-08-25T04:30:08.834Z,6.00
2022-08-25T04:32:36.322Z,5.43
2022-08-25T04:35:04.295Z,5.63
2022-08-25T04:37:30.761Z,5.83
2022-08-25T04:39:57.242Z,5.30
2022-08-25T04:42:23.764Z,5.90
2022-08-25T04:44:50.155Z,5.30
2022-08-25T04:47:16.596Z,6.07
2022-08-25T04:49:43.359Z,5.77
2022-08-25T04:52:13.045Z,6.03
2022-08-25T04:54:41.143Z,5.40
2022-08-25T04:57:07.546Z,6.53
2022-08-25T04:59:34.111Z,5.97
2022-08-25T05:02:05.259Z,5.93
2022-08-25T05:04:32.570Z,5.83
2022-08-25T05:06:59.250Z,5.63
2022-08-25T05:09:26.491Z,6.47
2022-08-25T05:11:53.791Z,6.27
2022-08-25T05:14:25.633Z,6.77
2022-08-25T05:16:54.090Z,6.23
2022-08-25T05:19:20.631Z,6.33
2022-08-25T05:21:47.106Z,6.60
2022-08-25T05:24:13.564Z,6.37
2022-08-25T05:26:40.024Z,6.53
2022-08-25T05:29:06.791Z,6.73
2022-08-25T05:31:38.461Z,6.67
2022-08-25T05:34:08.822Z,6.87
2022-08-25T05:36:35.616Z,6.47
2022-08-25T05:39:03.676Z,6.67
2022-08-25T05:41:31.363Z,6.83
2022-08-25T05:43:58.056Z,6.50
2022-08-25T05:46:25.258Z,6.43
2022-08-25T05:48:52.489Z,6.30
2022-08-25T05:51:19.860Z,6.30
2022-08-25T05:53:48.269Z,6.60
2022-08-25T05:56:14.691Z,6.43
2022-08-25T05:58:42.824Z,6.37
2022-08-25T06:01:28.214Z,6.33
2022-08-25T06:03:54.842Z,7.00
2022-08-25T06:06:23.273Z,6.33
2022-08-25T06:08:50.048Z,6.97
2022-08-25T06:11:16.576Z,6.67
2022-08-25T06:13:43.241Z,6.67
2022-08-25T06:16:09.727Z,6.50
2022-08-25T06:18:36.248Z,6.87
2022-08-25T06:21:14.077Z,6.60
2022-08-25T06:23:40.623Z,6.50
2022-08-25T06:26:13.136Z,6.53
2022-08-25T06:28:47.184Z,5.93
2022-08-25T06:31:13.773Z,5.97
2022-08-25T06:33:40.243Z,6.10
2022-08-25T06:36:07.564Z,6.20
2022-08-25T06:38:34.067Z,6.63
2022-08-25T06:41:07.045Z,6.50
2022-08-25T06:43:34.529Z,6.70
2022-08-25T06:46:11.506Z,6.00
2022-08-25T06:48:38.166Z,6.13
2022-08-25T06:51:09.255Z,6.03
2022-08-25T06:53:40.274Z,6.37
2022-08-25T06:56:06.983Z,5.80
2022-08-25T06:58:33.803Z,5.93
2022-08-25T07:01:15.733Z,5.60
2022-08-25T07:03:46.173Z,6.73
2022-08-25T07:06:14.351Z,6.13
2022-08-25T07:08:43.150Z,6.07
2022-08-25T07:11:16.228Z,6.10
2022-08-25T07:13:45.425Z,5.97
2022-08-25T07:16:11.896Z,5.90
2022-08-25T07:18:38.707Z,6.23
2022-08-25T07:21:05.386Z,5.53
2022-08-25T07:23:35.816Z,6.10
2022-08-25T07:26:36.937Z,5.20
2022-08-25T07:29:03.116Z,5.83
2022-08-25T07:31:29.956Z,5.53
2022-08-25T07:34:16.432Z,5.73
2022-08-25T07:36:43.293Z,5.70
2022-08-25T07:39:09.708Z,5.57
2022-08-25T07:41:36.857Z,5.37
2022-08-25T07:44:04.742Z,4.67
2022-08-25T07:46:31.231Z,5.50
2022-08-25T07:49:00.098Z,4.53
2022-08-25T07:53:53.917Z,5.30
2022-08-25T07:56:20.310Z,5.43
2022-08-25T07:58:47.461Z,5.40
2022-08-25T08:01:17.840Z,4.43
2022-08-25T08:03:50.378Z,4.97
2022-08-25T08:06:20.771Z,5.38
2022-08-25T08:08:49.205Z,4.73
2022-08-25T08:11:34.397Z,4.63
2022-08-25T08:14:01.280Z,4.72
2022-08-25T08:16:29.801Z,4.57
2022-08-25T08:18:57.838Z,3.67
2022-08-25T08:21:29.364Z,4.82
2022-08-25T08:23:59.031Z,3.88
2022-08-25T08:26:48.088Z,4.63
2022-08-25T08:29:16.227Z,5.20
2022-08-25T08:31:48.550Z,4.18
2022-08-25T08:34:16.467Z,4.28
2022-08-25T08:36:42.925Z,4.93
2022-08-25T08:39:11.734Z,4.70
2022-08-25T08:42:12.144Z,4.80
2022-08-25T08:44:44.983Z,4.00
2022-08-25T08:47:36.186Z,4.18
2022-08-25T08:50:30.693Z,4.78
2022-08-25T08:53:02.641Z,4.40
2022-08-25T08:55:33.037Z,4.10
2022-08-25T08:58:09.399Z,3.80
2022-08-25T09:00:52.055Z,4.80
2022-08-25T09:03:27.587Z,4.15
2022-08-25T09:05:59.415Z,4.70
2022-08-25T09:08:26.712Z,4.70
2022-08-25T09:11:10.123Z,4.43
2022-08-25T09:13:55.256Z,4.30
2022-08-25T09:16:55.993Z,3.58
2022-08-25T09:19:25.477Z,4.15
2022-08-25T09:22:00.990Z,4.05
2022-08-25T09:24:45.315Z,4.65
2022-08-25T09:27:17.807Z,4.47
2022-08-25T09:30:25.067Z,4.47
2022-08-25T09:33:03.838Z,4.65
2022-08-25T09:35:32.489Z,5.07
2022-08-25T09:38:02.395Z,4.10
2022-08-25T09:40:30.178Z,4.15
2022-08-25T09:42:59.763Z,4.40
2022-08-25T09:45:34.238Z,4.40
2022-08-25T09:48:00.791Z,4.00
2022-08-25T09:50:30.051Z,4.40
2022-08-25T09:53:15.253Z,3.72
2022-08-25T09:55:46.460Z,4.22
2022-08-25T09:58:23.791Z,3.95
2022-08-25T10:01:16.178Z,3.95
2022-08-25T10:03:55.309Z,3.88
2022-08-25T10:06:23.841Z,3.92
2022-08-25T10:08:50.768Z,4.22
2022-08-25T10:11:35.484Z,4.13
2022-08-25T10:14:16.611Z,3.33
2022-08-25T10:16:46.914Z,4.32
2022-08-25T10:19:23.301Z,4.28
2022-08-25T10:22:21.976Z,3.25
2022-08-25T10:24:49.010Z,4.10
2022-08-25T10:27:15.314Z,3.53
2022-08-25T10:30:03.093Z,3.42
2022-08-25T10:32:49.406Z,3.35
2022-08-25T10:35:18.374Z,3.65
2022-08-25T10:38:03.390Z,3.60
2022-08-25T10:40:38.734Z,3.40
2022-08-25T10:43:16.184Z,3.80
2022-08-25T10:45:49.419Z,3.70
2022-08-25T10:48:28.030Z,3.38
2022-08-25T10:51:18.089Z,4.03
2022-08-25T10:53:49.883Z,3.70
2022-08-25T10:56:33.246Z,3.78
2022-08-25T10:59:39.902Z,3.60
2022-08-25T11:02:23.865Z,3.03
2022-08-25T11:04:59.445Z,3.72
2022-08-25T11:07:28.282Z,3.80
2022-08-25T11:09:57.377Z,3.38
2022-08-25T11:12:30.255Z,3.78
2022-08-25T11:15:01.658Z,3.53
2022-08-25T11:17:46.057Z,3.67
2022-08-25T11:20:26.894Z,3.33
2022-08-25T11:23:13.328Z,3.25
2022-08-25T11:26:02.158Z,3.45
2022-08-25T11:28:53.564Z,3.45
2022-08-25T11:31:22.765Z,3.10
2022-08-25T11:33:50.980Z,2.95
2022-08-25T11:36:35.370Z,3.15
2022-08-25T11:39:17.721Z,2.88
2022-08-25T11:42:17.107Z,2.83
2022-08-25T11:44:53.380Z,3.00
2022-08-25T11:47:38.960Z,3.47
2022-08-25T11:50:23.373Z,3.35
2022-08-25T11:52:59.948Z,3.75
2022-08-25T11:55:51.779Z,3.63
2022-08-25T11:58:33.027Z,3.50
2022-08-25T12:01:02.156Z,3.00
2022-08-25T12:03:31.470Z,2.92
2022-08-25T12:06:18.147Z,3.35
2022-08-25T12:08:50.767Z,3.17
2022-08-25T12:11:35.755Z,2.70
2022-08-25T12:14:38.196Z,2.90
2022-08-25T12:17:06.248Z,2.70
2022-08-25T12:19:36.488Z,2.75
2022-08-25T12:22:04.407Z,2.88
2022-08-25T12:24:47.712Z,2.83
2022-08-25T12:27:33.610Z,3.42
2022-08-25T12:30:15.596Z,3.83
2022-08-25T12:33:16.132Z,4.00
2022-08-25T12:35:59.316Z,3.03
2022-08-25T12:38:47.274Z,3.67
2022-08-25T12:41:26.416Z,3.35
2022-08-25T12:43:54.383Z,3.47
2022-08-25T12:46:20.966Z,3.08
2022-08-25T12:48:58.106Z,3.40
2022-08-25T12:51:26.709Z,2.97
2022-08-25T12:54:15.895Z,3.10
2022-08-25T12:56:59.096Z,3.67
2022-08-25T12:59:31.374Z,3.70
2022-08-25T13:01:58.644Z,2.92
2022-08-25T13:04:48.239Z,3.90
2022-08-25T13:07:21.688Z,3.13
2022-08-25T13:10:06.783Z,3.65
2022-08-25T13:13:06.854Z,3.13
2022-08-25T13:15:37.220Z,3.20
2022-08-25T13:18:32.916Z,2.90
2022-08-25T13:21:29.031Z,2.92
2022-08-25T13:24:01.483Z,3.00
2022-08-25T13:26:32.970Z,3.17
2022-08-25T13:29:26.072Z,3.00
2022-08-25T13:31:54.833Z,2.97
2022-08-25T13:34:22.883Z,2.60
2022-08-25T13:37:27.024Z,3.50
2022-08-25T13:40:27.696Z,3.22
2022-08-25T13:43:09.299Z,2.92
2022-08-25T13:45:41.151Z,3.25
2022-08-25T13:48:20.914Z,3.30
2022-08-25T13:50:51.613Z,3.15
2022-08-25T13:53:25.050Z,3.45
2022-08-25T13:55:54.656Z,2.83
2022-08-25T13:58:39.421Z,2.70
2022-08-25T14:01:48.372Z,2.42
2022-08-25T14:04:20.975Z,3.38
2022-08-25T14:06:47.724Z,3.08
2022-08-25T14:09:17.857Z,3.40
2022-08-25T14:11:56.926Z,2.90
2022-08-25T14:14:23.283Z,3.08
2022-08-25T14:16:54.186Z,3.03
2022-08-25T14:19:24.609Z,2.80
2022-08-25T14:21:53.138Z,2.72
2022-08-25T14:24:23.775Z,3.05
2022-08-25T14:26:54.562Z,2.70
2022-08-25T14:29:22.094Z,2.50
2022-08-25T14:31:53.456Z,3.45
2022-08-25T14:34:24.046Z,3.97
2022-08-25T14:36:51.039Z,3.58
2022-08-25T14:39:18.209Z,3.40
2022-08-25T14:41:48.717Z,3.42
2022-08-25T14:44:20.322Z,3.50
2022-08-25T14:46:53.989Z,3.22
2022-08-25T14:49:26.897Z,3.17
2022-08-25T14:51:53.662Z,3.65
2022-08-25T14:54:24.909Z,2.85
2022-08-25T14:56:52.116Z,3.50
2022-08-25T14:59:18.570Z,3.13
2022-08-25T15:01:45.609Z,4.00
2022-08-25T15:04:17.618Z,3.83
2022-08-25T15:06:44.658Z,3.60
2022-08-25T15:09:12.832Z,3.53
2022-08-25T15:11:41.563Z,3.47
2022-08-25T15:14:09.472Z,3.70
2022-08-25T15:16:41.877Z,3.20
2022-08-25T15:19:09.578Z,3.40
2022-08-25T15:21:37.447Z,3.58
2022-08-25T15:24:09.264Z,3.38
2022-08-25T15:26:43.556Z,3.45
2022-08-25T15:29:12.074Z,3.70
2022-08-25T15:31:39.848Z,3.17
2022-08-25T15:34:07.026Z,3.40
2022-08-25T15:36:38.802Z,3.15
2022-08-25T15:39:06.387Z,3.40
2022-08-25T15:41:32.780Z,3.53
2022-08-25T15:43:59.833Z,3.30
2022-08-25T15:46:29.996Z,3.50
2022-08-25T15:48:59.876Z,3.20
2022-08-25T15:51:28.303Z,3.53
2022-08-25T15:53:55.555Z,3.22
2022-08-25T15:56:26.718Z,3.85
2022-08-25T15:58:55.247Z,3.20
2022-08-25T16:01:23.672Z,3.20
2022-08-25T16:03:51.372Z,3.80
2022-08-25T16:06:18.450Z,3.78
2022-08-25T16:08:45.004Z,3.30
2022-08-25T16:11:20.897Z,3.70
2022-08-25T16:13:47.908Z,3.17
2022-08-25T16:16:15.533Z,2.88
2022-08-25T16:18:43.646Z,4.28
2022-08-25T16:21:14.950Z,3.05
2022-08-25T16:23:41.258Z,3.75
2022-08-25T16:26:10.244Z,3.40
2022-08-25T16:28:43.954Z,3.00
2022-08-25T16:31:12.614Z,3.13
2022-08-25T16:33:39.672Z,3.80
2022-08-25T16:36:33.215Z,3.55
2022-08-25T16:39:00.877Z,3.20
2022-08-25T16:41:35.889Z,3.28
2022-08-25T16:44:07.615Z,3.53
2022-08-25T16:46:37.839Z,3.03
2022-08-25T16:49:07.080Z,3.25
2022-08-25T16:51:33.472Z,3.70
2022-08-25T16:54:22.360Z,3.25
2022-08-25T16:56:49.472Z,3.17
2022-08-25T16:59:21.437Z,3.95
2022-08-25T17:01:49.944Z,3.83
2022-08-25T17:04:17.617Z,3.25
2022-08-25T17:06:49.347Z,3.67
2022-08-25T17:09:24.108Z,4.07
2022-08-25T17:11:52.545Z,3.08
2022-08-25T17:14:20.618Z,3.25
2022-08-25T17:16:48.407Z,3.55
2022-08-25T17:19:16.943Z,3.20
2022-08-25T17:21:46.046Z,3.42
2022-08-25T17:24:13.846Z,3.05
2022-08-25T17:26:41.281Z,3.47
2022-08-25T17:29:08.041Z,4.05
2022-08-25T17:31:39.396Z,3.38
2022-08-25T17:34:08.534Z,3.15
2022-08-25T17:36:35.329Z,3.75
2022-08-25T17:39:03.270Z,3.30
2022-08-25T17:41:30.055Z,3.92
2022-08-25T17:43:57.203Z,3.15
2022-08-25T17:46:23.966Z,3.72
2022-08-25T17:48:50.886Z,3.25
2022-08-25T17:51:17.273Z,3.13
2022-08-25T17:53:43.674Z,3.20
2022-08-25T17:56:16.801Z,3.40
2022-08-25T17:58:44.391Z,3.95
2022-08-25T18:01:29.273Z,3.53
2022-08-25T18:03:57.362Z,3.40
2022-08-25T18:06:24.326Z,3.70
2022-08-25T18:08:54.469Z,3.60
2022-08-25T18:11:25.213Z,3.35
2022-08-25T18:13:53.596Z,3.47
2022-08-25T18:16:21.306Z,3.72
2022-08-25T18:18:48.408Z,3.55
2022-08-25T18:21:17.058Z,3.55
2022-08-25T18:23:44.899Z,3.85
2022-08-25T18:26:13.183Z,3.90
2022-08-25T18:28:40.153Z,4.50
2022-08-25T18:31:11.885Z,4.03
2022-08-25T18:33:41.553Z,3.92
2022-08-25T18:36:09.621Z,3.83
2022-08-25T18:38:57.939Z,4.40
2022-08-25T18:41:26.302Z,4.15
2022-08-25T18:43:53.139Z,4.47
2022-08-25T18:46:22.514Z,4.63
2022-08-25T18:48:49.895Z,4.82
2022-08-25T18:51:19.480Z,4.90
2022-08-25T18:53:51.023Z,4.18
2022-08-25T18:56:19.345Z,5.30
2022-08-25T18:58:46.893Z,5.25
2022-08-25T19:01:15.665Z,5.45
2022-08-25T19:03:43.017Z,4.45
2022-08-25T19:06:09.783Z,5.50
2022-08-25T19:08:39.353Z,5.13
2022-08-25T19:11:08.548Z,4.65
2022-08-25T19:13:35.075Z,4.93
2022-08-25T19:16:20.387Z,5.47
2022-08-25T19:18:48.911Z,6.05
2022-08-25T19:21:20.497Z,5.85
2022-08-25T19:23:50.203Z,6.05
2022-08-25T19:26:17.958Z,4.80
2022-08-25T19:28:50.416Z,5.50
2022-08-25T19:31:19.020Z,4.50
2022-08-25T19:33:47.838Z,4.97
2022-08-25T19:36:17.187Z,5.68
2022-08-25T19:38:44.367Z,4.80
2022-08-25T19:41:14.582Z,4.80
2022-08-25T19:43:55.620Z,5.47
2022-08-25T19:46:32.915Z,5.20
2022-08-25T19:49:08.841Z,4.75
2022-08-25T19:51:43.934Z,6.00
2022-08-25T19:54:16.418Z,4.65
2022-08-25T19:56:54.384Z,4.97
2022-08-25T19:59:42.328Z,5.57
2022-08-25T20:02:15.324Z,5.28
2022-08-25T20:04:42.929Z,6.13
2022-08-25T20:07:16.908Z,4.95
2022-08-25T20:09:45.132Z,6.00
2022-08-25T20:12:12.152Z,5.38
2022-08-25T20:14:39.146Z,6.25
2022-08-25T20:17:13.183Z,6.22
2022-08-25T20:19:45.173Z,6.60
2022-08-25T20:22:11.920Z,5.72
2022-08-25T20:24:56.173Z,5.90
2022-08-25T20:27:34.857Z,6.07
2022-08-25T20:30:03.625Z,6.28
2022-08-25T20:32:32.398Z,7.63
2022-08-25T20:34:59.896Z,5.18
2022-08-25T20:37:26.492Z,5.32
2022-08-25T20:39:52.987Z,6.00
2022-08-25T20:42:19.594Z,7.25
2022-08-25T20:44:46.972Z,5.60
2022-08-25T20:47:14.776Z,5.40
2022-08-25T20:49:44.405Z,6.28
2022-08-25T20:52:11.906Z,5.68
2022-08-25T20:54:38.596Z,5.57
2022-08-25T20:57:05.480Z,5.40
2022-08-25T20:59:34.473Z,6.05
2022-08-25T21:02:00.969Z,6.30
2022-08-25T21:04:31.856Z,6.28
2022-08-25T21:07:00.189Z,6.57
2022-08-25T21:09:27.976Z,5.80
2022-08-25T21:11:56.409Z,6.07
2022-08-25T21:14:24.745Z,6.18
2022-08-25T21:16:53.267Z,5.15
2022-08-25T21:19:26.406Z,5.40
2022-08-25T21:21:54.084Z,5.87
2022-08-25T21:24:26.201Z,5.80
2022-08-25T21:26:55.759Z,5.87
2022-08-25T21:29:22.831Z,6.07
2022-08-25T21:31:50.945Z,6.47
2022-08-25T21:34:18.687Z,6.20
2022-08-25T21:36:45.793Z,7.13
2022-08-25T21:39:13.120Z,6.60
2022-08-25T21:41:42.645Z,6.50
2022-08-25T21:44:10.245Z,6.23
2022-08-25T21:46:36.981Z,6.27
2022-08-25T21:49:06.518Z,6.47
2022-08-25T21:51:40.731Z,6.67
2022-08-25T21:54:11.237Z,6.17
2022-08-25T21:56:43.589Z,6.50
2022-08-25T21:59:14.945Z,5.77
2022-08-25T22:01:42.740Z,5.87
2022-08-25T22:04:11.887Z,6.43
2022-08-25T22:06:39.021Z,6.70
2022-08-25T22:09:07.385Z,6.40
2022-08-25T22:11:36.167Z,6.80
2022-08-25T22:14:03.506Z,6.47
2022-08-25T22:16:31.823Z,6.30
2022-08-25T22:18:59.361Z,7.07
2022-08-25T22:21:27.827Z,6.90
2022-08-25T22:23:58.803Z,6.63
2022-08-25T22:26:28.899Z,6.20
2022-08-25T22:28:57.425Z,6.20
2022-08-25T22:31:25.006Z,6.50
2022-08-25T22:33:52.276Z,5.43
2022-08-25T22:36:31.463Z,6.47
2022-08-25T22:38:58.516Z,6.50
2022-08-25T22:41:27.076Z,6.90
2022-08-25T22:43:55.282Z,6.87
2022-08-25T22:46:22.878Z,6.60
2022-08-25T22:48:50.386Z,6.87
2022-08-25T22:51:21.756Z,6.77
2022-08-25T22:53:49.101Z,7.63
2022-08-25T22:56:18.823Z,6.87
2022-08-25T22:58:51.768Z,7.17
2022-08-25T23:01:19.921Z,7.03
2022-08-25T23:03:47.593Z,6.83
2022-08-25T23:06:24.490Z,7.27
2022-08-25T23:08:51.243Z,7.20
2022-08-25T23:11:21.101Z,7.10
2022-08-25T23:13:47.578Z,7.50
2022-08-25T23:16:15.062Z,7.33
2022-08-25T23:18:43.937Z,6.20
2022-08-25T23:21:29.926Z,6.87
2022-08-25T23:24:01.876Z,7.00
2022-08-25T23:26:29.375Z,6.37
2022-08-25T23:28:55.916Z,6.77
2022-08-25T23:31:22.326Z,7.20
2022-08-25T23:33:50.769Z,7.70
2022-08-25T23:36:17.391Z,7.27
2022-08-25T23:38:46.108Z,7.00
2022-08-25T23:41:19.429Z,7.57
2022-08-25T23:43:47.041Z,6.97
2022-08-25T23:46:18.028Z,7.47
2022-08-25T23:48:44.674Z,6.67
2022-08-25T23:51:11.410Z,7.23
2022-08-25T23:53:38.421Z,7.27
2022-08-25T23:56:06.112Z,6.23
2022-08-25T23:58:32.681Z,7.70
